createdAt,value
2023-08-08T00:00:17.421Z,35.00
2023-08-08T00:00:49.864Z,35.00
2023-08-08T00:01:21.920Z,35.00
2023-08-08T00:01:53.862Z,34.33
2023-08-08T00:02:25.803Z,34.00
2023-08-08T00:02:57.847Z,34.00
2023-08-08T00:03:30.044Z,34.00
2023-08-08T00:04:02.097Z,34.67
2023-08-08T00:04:34.024Z,35.67
2023-08-08T00:05:06.094Z,37.33
2023-08-08T00:05:38.001Z,38.67
2023-08-08T00:06:09.988Z,40.00
2023-08-08T00:06:41.928Z,40.00
2023-08-08T00:07:13.887Z,40.00
2023-08-08T00:07:45.844Z,40.00
2023-08-08T00:08:17.715Z,41.00
2023-08-08T00:08:49.648Z,40.00
2023-08-08T00:09:21.618Z,39.67
2023-08-08T00:09:53.484Z,39.00
2023-08-08T00:10:25.407Z,39.00
2023-08-08T00:10:57.589Z,38.33
2023-08-08T00:11:29.481Z,38.00
2023-08-08T00:12:01.518Z,38.00
2023-08-08T00:12:33.601Z,38.33
2023-08-08T00:13:05.555Z,41.67
2023-08-08T00:13:37.745Z,43.67
2023-08-08T00:14:09.762Z,44.33
2023-08-08T00:14:41.716Z,45.67
2023-08-08T00:15:13.662Z,46.00
2023-08-08T00:15:45.611Z,46.00
2023-08-08T00:16:17.743Z,45.67
2023-08-08T00:16:49.733Z,46.00
2023-08-08T00:17:21.627Z,47.00
2023-08-08T00:17:53.647Z,47.67
2023-08-08T00:18:25.814Z,49.00
2023-08-08T00:18:57.761Z,49.67
2023-08-08T00:19:29.707Z,51.33
2023-08-08T00:20:01.896Z,52.67
2023-08-08T00:20:33.820Z,52.67
2023-08-08T00:21:05.730Z,52.00
2023-08-08T00:21:37.706Z,52.00
2023-08-08T00:22:09.645Z,52.00
2023-08-08T00:22:41.880Z,51.00
2023-08-08T00:23:13.830Z,50.33
2023-08-08T00:23:45.744Z,47.67
2023-08-08T00:24:17.663Z,42.67
2023-08-08T00:24:49.586Z,38.33
2023-08-08T00:25:21.530Z,36.33
2023-08-08T00:25:53.856Z,35.00
2023-08-08T00:26:25.783Z,35.00
2023-08-08T00:26:57.690Z,35.33
2023-08-08T00:27:29.613Z,36.00
2023-08-08T00:28:01.462Z,36.00
2023-08-08T00:28:33.388Z,36.67
2023-08-08T00:29:05.307Z,37.67
2023-08-08T00:29:37.285Z,40.00
2023-08-08T00:30:10.221Z,41.67
2023-08-08T00:30:42.173Z,43.33
2023-08-08T00:31:14.185Z,45.00
2023-08-08T00:31:46.114Z,47.33
2023-08-08T00:32:18.083Z,52.67
2023-08-08T00:32:50.067Z,58.67
2023-08-08T00:33:22.014Z,63.33
2023-08-08T00:33:54.058Z,67.67
2023-08-08T00:34:25.930Z,71.67
2023-08-08T00:34:57.928Z,76.33
2023-08-08T00:35:29.851Z,82.33
2023-08-08T00:36:01.804Z,86.33
2023-08-08T00:36:33.686Z,91.67
2023-08-08T00:37:05.559Z,99.00
2023-08-08T00:37:37.493Z,105.33
2023-08-08T00:38:09.396Z,112.67
2023-08-08T00:38:41.367Z,115.00
2023-08-08T00:39:13.346Z,113.00
2023-08-08T00:39:47.294Z,111.33
2023-08-08T00:40:19.231Z,111.00
2023-08-08T00:40:51.119Z,113.00
2023-08-08T00:41:23.207Z,115.33
2023-08-08T00:41:55.156Z,118.33
2023-08-08T00:42:27.400Z,124.33
2023-08-08T00:42:59.340Z,129.00
2023-08-08T00:43:31.323Z,128.67
2023-08-08T00:44:03.233Z,122.67
2023-08-08T00:44:35.335Z,113.67
2023-08-08T00:45:07.805Z,110.33
2023-08-08T00:45:44.140Z,109.00
2023-08-08T00:46:17.117Z,108.00
2023-08-08T00:46:49.272Z,110.00
2023-08-08T00:47:21.280Z,112.00
2023-08-08T00:47:53.281Z,113.00
2023-08-08T00:48:25.890Z,113.00
2023-08-08T00:48:57.968Z,114.00
2023-08-08T00:49:30.027Z,116.33
2023-08-08T00:50:05.534Z,117.00
2023-08-08T00:50:38.683Z,116.33
2023-08-08T00:51:10.647Z,117.67
2023-08-08T00:51:43.426Z,122.00
2023-08-08T00:52:15.697Z,124.67
2023-08-08T00:52:49.134Z,124.00
2023-08-08T00:53:23.770Z,124.00
2023-08-08T00:53:57.177Z,122.33
2023-08-08T00:54:29.858Z,120.67
2023-08-08T00:55:02.875Z,120.00
2023-08-08T00:55:35.040Z,119.00
2023-08-08T00:56:07.380Z,119.00
2023-08-08T00:56:39.313Z,119.00
2023-08-08T00:57:11.747Z,120.00
2023-08-08T00:57:44.108Z,123.00
2023-08-08T00:58:17.541Z,126.00
2023-08-08T00:58:51.875Z,128.33
2023-08-08T00:59:25.180Z,131.33
2023-08-08T00:59:57.353Z,137.33
2023-08-08T01:00:29.298Z,144.67
2023-08-08T01:01:01.487Z,149.00
2023-08-08T01:01:33.429Z,158.00
2023-08-08T01:02:05.668Z,168.00
2023-08-08T01:02:38.124Z,175.00
2023-08-08T01:03:10.193Z,182.67
2023-08-08T01:03:42.369Z,185.33
2023-08-08T01:04:14.574Z,183.00
2023-08-08T01:04:47.135Z,179.67
2023-08-08T01:05:19.273Z,178.33
2023-08-08T01:06:14.483Z,179.67
2023-08-08T01:06:58.608Z,182.67
2023-08-08T01:07:53.534Z,188.67
2023-08-08T01:08:34.273Z,186.67
2023-08-08T01:09:18.821Z,183.00
2023-08-08T01:09:58.689Z,179.33
2023-08-08T01:10:40.647Z,181.67
2023-08-08T01:11:14.862Z,183.67
2023-08-08T01:11:49.697Z,185.33
2023-08-08T01:12:22.878Z,186.00
2023-08-08T01:13:05.543Z,184.67
2023-08-08T01:13:39.690Z,182.67
2023-08-08T01:14:12.839Z,183.00
2023-08-08T01:14:46.260Z,188.67
2023-08-08T01:15:19.028Z,196.67
2023-08-08T01:15:51.774Z,203.00
2023-08-08T01:16:27.540Z,210.00
2023-08-08T01:17:01.290Z,215.33
2023-08-08T01:17:34.389Z,221.33
2023-08-08T01:18:08.319Z,225.00
2023-08-08T01:18:41.756Z,223.33
2023-08-08T01:19:23.320Z,216.00
2023-08-08T01:19:56.012Z,217.00
2023-08-08T01:20:28.347Z,216.33
2023-08-08T01:21:01.404Z,213.33
2023-08-08T01:21:41.881Z,213.33
2023-08-08T01:22:26.185Z,217.33
2023-08-08T01:23:20.173Z,219.67
2023-08-08T01:24:06.503Z,226.00
2023-08-08T01:24:38.914Z,233.33
2023-08-08T01:25:12.107Z,234.67
2023-08-08T01:25:45.430Z,231.33
2023-08-08T01:26:18.625Z,228.00
2023-08-08T01:26:51.002Z,228.00
2023-08-08T01:27:23.630Z,228.33
2023-08-08T01:27:55.570Z,233.00
2023-08-08T01:28:27.982Z,238.00
2023-08-08T01:29:00.026Z,238.67
2023-08-08T01:29:31.894Z,237.33
2023-08-08T01:30:05.152Z,234.00
2023-08-08T01:30:37.113Z,232.67
2023-08-08T01:31:09.105Z,234.33
2023-08-08T01:31:41.053Z,236.33
2023-08-08T01:32:12.999Z,238.33
2023-08-08T01:32:45.004Z,238.67
2023-08-08T01:33:17.323Z,239.00
2023-08-08T01:33:49.542Z,241.00
2023-08-08T01:34:21.920Z,243.00
2023-08-08T01:34:54.576Z,241.67
2023-08-08T01:35:31.645Z,243.00
2023-08-08T01:36:15.206Z,243.67
2023-08-08T01:36:57.768Z,242.67
2023-08-08T01:37:47.485Z,263.00
2023-08-08T01:38:32.163Z,282.33
2023-08-08T01:39:11.267Z,285.67
2023-08-08T01:39:45.178Z,284.33
2023-08-08T01:40:19.309Z,283.67
2023-08-08T01:40:51.903Z,277.67
2023-08-08T01:41:25.578Z,275.33
2023-08-08T01:42:00.212Z,274.67
2023-08-08T01:42:33.190Z,272.00
2023-08-08T01:43:05.644Z,268.00
2023-08-08T01:43:41.890Z,265.67
2023-08-08T01:44:15.101Z,236.33
2023-08-08T01:44:47.911Z,199.00
2023-08-08T01:45:20.519Z,183.33
2023-08-08T01:45:54.472Z,166.33
2023-08-08T01:46:27.937Z,149.33
2023-08-08T01:47:00.358Z,136.33
2023-08-08T01:47:32.261Z,130.33
2023-08-08T01:48:11.718Z,127.33
2023-08-08T01:48:47.953Z,130.33
2023-08-08T01:49:19.991Z,129.00
2023-08-08T01:49:52.051Z,121.67
2023-08-08T01:50:24.047Z,117.33
2023-08-08T01:50:56.062Z,116.00
2023-08-08T01:51:29.104Z,114.33
2023-08-08T01:52:01.350Z,112.00
2023-08-08T01:52:33.498Z,112.00
2023-08-08T01:53:05.784Z,115.00
2023-08-08T01:53:37.732Z,116.67
2023-08-08T01:54:10.081Z,111.67
2023-08-08T01:54:43.518Z,107.00
2023-08-08T01:55:15.542Z,114.33
2023-08-08T01:55:47.470Z,128.67
2023-08-08T01:56:19.441Z,140.67
2023-08-08T01:56:51.393Z,146.00
2023-08-08T01:57:23.750Z,155.33
2023-08-08T01:57:55.712Z,155.67
2023-08-08T01:58:27.589Z,151.33
2023-08-08T01:58:59.522Z,145.00
2023-08-08T01:59:31.508Z,142.67
2023-08-08T02:00:05.612Z,143.33
2023-08-08T02:00:37.986Z,144.67
2023-08-08T02:01:09.914Z,145.67
2023-08-08T02:01:42.006Z,146.33
2023-08-08T02:02:13.945Z,152.00
2023-08-08T02:02:45.903Z,172.67
2023-08-08T02:03:18.043Z,190.67
2023-08-08T02:03:50.118Z,200.00
2023-08-08T02:04:22.037Z,204.67
2023-08-08T02:04:54.323Z,205.67
2023-08-08T02:05:26.374Z,203.67
2023-08-08T02:05:58.518Z,198.00
2023-08-08T02:06:30.880Z,192.00
2023-08-08T02:07:02.783Z,188.00
2023-08-08T02:07:34.805Z,186.33
2023-08-08T02:08:06.970Z,190.33
2023-08-08T02:08:39.584Z,207.67
2023-08-08T02:09:12.426Z,219.67
2023-08-08T02:09:44.324Z,220.00
2023-08-08T02:10:16.442Z,216.00
2023-08-08T02:10:48.449Z,207.00
2023-08-08T02:11:20.552Z,200.33
2023-08-08T02:11:52.497Z,198.00
2023-08-08T02:12:24.451Z,194.33
2023-08-08T02:12:56.438Z,183.67
2023-08-08T02:13:28.351Z,175.33
2023-08-08T02:14:00.205Z,177.67
2023-08-08T02:14:32.178Z,182.33
2023-08-08T02:15:05.775Z,180.67
2023-08-08T02:15:37.782Z,165.00
2023-08-08T02:16:09.864Z,168.00
2023-08-08T02:16:43.679Z,172.67
2023-08-08T02:17:15.705Z,196.67
2023-08-08T02:17:48.449Z,216.33
2023-08-08T02:18:20.579Z,221.67
2023-08-08T02:18:52.522Z,209.67
2023-08-08T02:19:24.463Z,202.00
2023-08-08T02:19:56.334Z,198.00
2023-08-08T02:20:29.700Z,198.00
2023-08-08T02:21:01.585Z,197.33
2023-08-08T02:21:33.493Z,197.00
2023-08-08T02:22:05.618Z,198.67
2023-08-08T02:22:37.596Z,206.00
2023-08-08T02:23:09.546Z,212.33
2023-08-08T02:23:41.486Z,212.67
2023-08-08T02:24:13.493Z,216.00
2023-08-08T02:24:45.417Z,221.00
2023-08-08T02:25:17.407Z,225.00
2023-08-08T02:25:49.354Z,227.67
2023-08-08T02:26:21.618Z,228.33
2023-08-08T02:26:53.530Z,227.67
2023-08-08T02:27:25.662Z,224.00
2023-08-08T02:27:58.925Z,221.67
2023-08-08T02:28:30.856Z,218.67
2023-08-08T02:29:02.887Z,217.67
2023-08-08T02:29:34.783Z,216.67
2023-08-08T02:30:07.352Z,216.00
2023-08-08T02:30:39.621Z,216.33
2023-08-08T02:31:11.708Z,218.33
2023-08-08T02:31:43.653Z,223.00
2023-08-08T02:32:15.645Z,229.00
2023-08-08T02:32:47.590Z,228.67
2023-08-08T02:33:20.485Z,223.33
2023-08-08T02:33:52.557Z,208.33
2023-08-08T02:34:25.083Z,198.67
2023-08-08T02:34:57.194Z,200.67
2023-08-08T02:35:29.188Z,197.33
2023-08-08T02:36:01.149Z,188.00
2023-08-08T02:36:34.461Z,173.00
2023-08-08T02:37:06.456Z,162.67
2023-08-08T02:37:38.391Z,168.33
2023-08-08T02:38:10.365Z,167.67
2023-08-08T02:38:42.656Z,176.33
2023-08-08T02:39:14.935Z,180.67
2023-08-08T02:39:46.933Z,176.33
2023-08-08T02:40:18.906Z,158.33
2023-08-08T02:40:50.813Z,132.00
2023-08-08T02:41:22.964Z,113.00
2023-08-08T02:41:54.877Z,119.33
2023-08-08T02:42:26.782Z,132.67
2023-08-08T02:42:58.698Z,149.67
2023-08-08T02:43:30.611Z,169.67
2023-08-08T02:44:02.628Z,211.33
2023-08-08T02:44:34.749Z,233.67
2023-08-08T02:45:07.468Z,240.33
2023-08-08T02:45:39.440Z,240.00
2023-08-08T02:46:11.346Z,243.00
2023-08-08T02:46:43.373Z,249.67
2023-08-08T02:47:15.229Z,257.00
2023-08-08T02:47:47.199Z,257.67
2023-08-08T02:48:19.225Z,255.00
2023-08-08T02:48:51.263Z,252.00
2023-08-08T02:49:23.203Z,249.67
2023-08-08T02:49:55.229Z,249.00
2023-08-08T02:50:27.210Z,256.00
2023-08-08T02:50:59.160Z,265.33
2023-08-08T02:51:31.091Z,268.00
2023-08-08T02:52:03.161Z,270.33
2023-08-08T02:52:35.116Z,275.00
2023-08-08T02:53:07.105Z,280.00
2023-08-08T02:53:39.085Z,280.67
2023-08-08T02:54:10.998Z,276.00
2023-08-08T02:54:43.057Z,273.33
2023-08-08T02:55:15.038Z,274.67
2023-08-08T02:55:47.742Z,270.33
2023-08-08T02:56:19.812Z,259.33
2023-08-08T02:56:51.778Z,241.33
2023-08-08T02:57:23.734Z,232.67
2023-08-08T02:57:55.627Z,235.67
2023-08-08T02:58:27.593Z,235.67
2023-08-08T02:58:59.591Z,232.67
2023-08-08T02:59:31.522Z,229.00
2023-08-08T03:00:05.161Z,223.67
2023-08-08T03:00:37.299Z,222.33
2023-08-08T03:01:09.510Z,225.00
2023-08-08T03:01:41.554Z,226.67
2023-08-08T03:02:13.573Z,228.67
2023-08-08T03:02:45.637Z,228.00
2023-08-08T03:03:17.556Z,226.33
2023-08-08T03:03:49.865Z,227.00
2023-08-08T03:04:21.891Z,215.33
2023-08-08T03:04:53.778Z,203.67
2023-08-08T03:05:25.880Z,206.00
2023-08-08T03:05:57.750Z,200.33
2023-08-08T03:06:29.651Z,179.00
2023-08-08T03:07:05.220Z,152.33
2023-08-08T03:07:37.164Z,131.67
2023-08-08T03:08:09.059Z,112.33
2023-08-08T03:08:41.129Z,93.33
2023-08-08T03:09:13.020Z,77.33
2023-08-08T03:09:46.280Z,65.33
2023-08-08T03:10:18.337Z,57.33
2023-08-08T03:10:50.554Z,54.00
2023-08-08T03:11:22.527Z,52.33
2023-08-08T03:11:54.597Z,56.33
2023-08-08T03:12:26.715Z,64.33
2023-08-08T03:12:58.797Z,65.00
2023-08-08T03:13:30.733Z,64.00
2023-08-08T03:14:02.859Z,63.00
2023-08-08T03:14:35.064Z,60.00
2023-08-08T03:15:08.028Z,62.67
2023-08-08T03:15:40.147Z,67.33
2023-08-08T03:16:12.140Z,74.00
2023-08-08T03:16:44.216Z,76.00
2023-08-08T03:17:16.132Z,70.67
2023-08-08T03:17:48.018Z,67.33
2023-08-08T03:18:20.080Z,65.33
2023-08-08T03:18:52.121Z,64.33
2023-08-08T03:19:24.031Z,66.67
2023-08-08T03:19:55.995Z,73.33
2023-08-08T03:20:28.304Z,81.67
2023-08-08T03:21:00.332Z,81.67
2023-08-08T03:21:32.648Z,78.33
2023-08-08T03:22:04.884Z,77.33
2023-08-08T03:22:36.863Z,82.00
2023-08-08T03:23:08.845Z,86.00
2023-08-08T03:23:40.760Z,104.67
2023-08-08T03:24:12.727Z,119.67
2023-08-08T03:24:44.591Z,132.33
2023-08-08T03:25:16.495Z,134.00
2023-08-08T03:25:48.443Z,128.67
2023-08-08T03:26:21.013Z,154.00
2023-08-08T03:26:53.031Z,189.67
2023-08-08T03:27:25.210Z,193.67
2023-08-08T03:27:57.152Z,168.00
2023-08-08T03:28:29.023Z,163.00
2023-08-08T03:29:01.006Z,191.00
2023-08-08T03:29:32.940Z,231.33
2023-08-08T03:30:05.410Z,248.33
2023-08-08T03:30:39.073Z,245.00
2023-08-08T03:31:11.057Z,240.67
2023-08-08T03:31:43.037Z,231.33
2023-08-08T03:32:14.934Z,228.67
2023-08-08T03:32:46.976Z,224.33
2023-08-08T03:33:19.122Z,217.67
2023-08-08T03:33:51.101Z,236.00
2023-08-08T03:34:23.182Z,264.33
2023-08-08T03:34:55.321Z,277.67
2023-08-08T03:35:28.119Z,271.00
2023-08-08T03:36:00.030Z,263.00
2023-08-08T03:36:32.247Z,270.33
2023-08-08T03:37:04.391Z,285.00
2023-08-08T03:37:36.440Z,296.67
2023-08-08T03:38:08.839Z,301.00
2023-08-08T03:38:40.951Z,300.00
2023-08-08T03:39:13.367Z,299.33
2023-08-08T03:39:45.368Z,310.33
2023-08-08T03:40:17.403Z,311.33
2023-08-08T03:40:49.310Z,300.67
2023-08-08T03:41:21.572Z,284.33
2023-08-08T03:41:53.633Z,278.33
2023-08-08T03:42:25.697Z,287.67
2023-08-08T03:42:57.571Z,293.33
2023-08-08T03:43:29.482Z,295.33
2023-08-08T03:44:03.792Z,288.33
2023-08-08T03:44:35.802Z,273.67
2023-08-08T03:45:08.175Z,279.00
2023-08-08T03:45:40.383Z,289.33
2023-08-08T03:46:12.909Z,295.00
2023-08-08T03:46:44.947Z,291.67
2023-08-08T03:47:19.761Z,289.00
2023-08-08T03:47:52.316Z,285.00
2023-08-08T03:48:24.284Z,282.00
2023-08-08T03:48:56.232Z,279.00
2023-08-08T03:49:28.216Z,271.00
2023-08-08T03:50:00.146Z,257.33
2023-08-08T03:50:32.029Z,257.67
2023-08-08T03:51:04.314Z,257.00
2023-08-08T03:51:36.286Z,241.33
2023-08-08T03:52:08.331Z,235.67
2023-08-08T03:52:40.528Z,246.33
2023-08-08T03:53:12.414Z,248.33
2023-08-08T03:53:44.842Z,250.00
2023-08-08T03:54:19.208Z,239.00
2023-08-08T03:54:51.195Z,236.00
2023-08-08T03:55:23.221Z,244.67
2023-08-08T03:55:55.096Z,265.67
2023-08-08T03:56:28.215Z,290.33
2023-08-08T03:57:00.622Z,299.33
2023-08-08T03:57:32.718Z,297.67
2023-08-08T03:58:04.914Z,297.67
2023-08-08T03:58:38.488Z,299.33
2023-08-08T03:59:11.045Z,304.33
2023-08-08T03:59:42.971Z,304.33
2023-08-08T04:00:15.003Z,306.67
2023-08-08T04:00:47.918Z,306.67
2023-08-08T04:01:19.911Z,305.00
2023-08-08T04:01:52.072Z,302.33
2023-08-08T04:02:24.299Z,301.00
2023-08-08T04:02:56.413Z,300.00
2023-08-08T04:03:28.331Z,298.33
2023-08-08T04:04:00.397Z,296.33
2023-08-08T04:04:32.253Z,294.67
2023-08-08T04:05:04.318Z,293.67
2023-08-08T04:05:36.222Z,290.00
2023-08-08T04:06:09.194Z,280.33
2023-08-08T04:06:41.228Z,273.33
2023-08-08T04:07:13.223Z,271.00
2023-08-08T04:07:45.168Z,271.00
2023-08-08T04:08:19.617Z,269.00
2023-08-08T04:08:52.762Z,268.00
2023-08-08T04:09:24.716Z,267.33
2023-08-08T04:09:56.630Z,263.00
2023-08-08T04:10:28.611Z,247.67
2023-08-08T04:11:00.530Z,245.00
2023-08-08T04:11:32.539Z,233.67
2023-08-08T04:12:04.741Z,215.33
2023-08-08T04:12:36.730Z,222.33
2023-08-08T04:13:08.833Z,218.00
2023-08-08T04:13:40.740Z,203.67
2023-08-08T04:14:12.642Z,192.67
2023-08-08T04:14:44.812Z,187.33
2023-08-08T04:15:16.857Z,191.33
2023-08-08T04:15:48.933Z,190.67
2023-08-08T04:16:20.938Z,187.67
2023-08-08T04:16:53.055Z,177.00
2023-08-08T04:17:25.147Z,163.67
2023-08-08T04:17:57.184Z,164.33
2023-08-08T04:18:29.190Z,160.67
2023-08-08T04:19:01.119Z,152.33
2023-08-08T04:19:33.165Z,150.00
2023-08-08T04:20:07.081Z,153.67
2023-08-08T04:20:39.857Z,152.33
2023-08-08T04:21:11.776Z,153.33
2023-08-08T04:21:43.759Z,153.33
2023-08-08T04:22:16.807Z,162.00
2023-08-08T04:22:48.738Z,197.67
2023-08-08T04:23:20.771Z,253.67
2023-08-08T04:23:52.724Z,269.67
2023-08-08T04:24:24.779Z,270.00
2023-08-08T04:24:56.636Z,274.33
2023-08-08T04:25:29.649Z,281.33
2023-08-08T04:26:01.735Z,285.33
2023-08-08T04:26:33.596Z,278.00
2023-08-08T04:27:05.664Z,267.33
2023-08-08T04:27:37.545Z,258.00
2023-08-08T04:28:09.564Z,251.67
2023-08-08T04:28:41.494Z,253.67
2023-08-08T04:29:13.405Z,254.67
2023-08-08T04:29:45.418Z,257.00
2023-08-08T04:30:17.486Z,255.33
2023-08-08T04:30:49.452Z,255.33
2023-08-08T04:31:21.614Z,253.33
2023-08-08T04:31:53.676Z,248.00
2023-08-08T04:32:26.027Z,217.33
2023-08-08T04:32:58.033Z,203.67
2023-08-08T04:33:30.061Z,209.67
2023-08-08T04:34:05.318Z,217.67
2023-08-08T04:34:37.301Z,219.67
2023-08-08T04:35:09.339Z,221.33
2023-08-08T04:35:41.326Z,222.67
2023-08-08T04:36:13.248Z,222.67
2023-08-08T04:36:45.137Z,218.00
2023-08-08T04:37:17.027Z,199.33
2023-08-08T04:37:49.004Z,181.33
2023-08-08T04:38:20.996Z,170.33
2023-08-08T04:38:52.919Z,169.00
2023-08-08T04:39:24.810Z,172.67
2023-08-08T04:39:56.935Z,181.33
2023-08-08T04:40:29.125Z,193.67
2023-08-08T04:41:01.500Z,197.00
2023-08-08T04:41:33.387Z,198.00
2023-08-08T04:42:05.676Z,194.00
2023-08-08T04:42:37.693Z,184.33
2023-08-08T04:43:09.619Z,189.67
2023-08-08T04:43:41.526Z,194.00
2023-08-08T04:44:13.442Z,203.00
2023-08-08T04:44:45.355Z,253.67
2023-08-08T04:45:17.264Z,289.00
2023-08-08T04:45:49.141Z,297.33
2023-08-08T04:46:21.020Z,286.67
2023-08-08T04:46:53.163Z,259.33
2023-08-08T04:47:25.159Z,250.00
2023-08-08T04:47:57.166Z,282.00
2023-08-08T04:48:29.115Z,299.00
2023-08-08T04:49:01.074Z,302.67
2023-08-08T04:49:32.960Z,299.33
2023-08-08T04:50:05.293Z,294.00
2023-08-08T04:50:37.301Z,296.33
2023-08-08T04:51:10.236Z,300.33
2023-08-08T04:51:42.137Z,296.33
2023-08-08T04:52:14.155Z,298.67
2023-08-08T04:52:46.112Z,297.00
2023-08-08T04:53:18.077Z,292.67
2023-08-08T04:53:49.967Z,287.67
2023-08-08T04:54:21.934Z,286.00
2023-08-08T04:54:53.924Z,284.33
2023-08-08T04:55:26.259Z,283.67
2023-08-08T04:55:58.611Z,287.00
2023-08-08T04:56:30.943Z,288.00
2023-08-08T04:57:02.950Z,287.67
2023-08-08T04:57:34.980Z,285.00
2023-08-08T04:58:07.482Z,282.67
2023-08-08T04:58:39.405Z,277.33
2023-08-08T04:59:11.382Z,276.00
2023-08-08T04:59:43.942Z,277.00
2023-08-08T05:00:16.030Z,278.00
2023-08-08T05:00:48.049Z,277.00
2023-08-08T05:01:21.733Z,276.33
2023-08-08T05:01:53.685Z,274.67
2023-08-08T05:02:26.101Z,273.33
2023-08-08T05:02:58.208Z,273.00
2023-08-08T05:03:30.298Z,272.00
2023-08-08T05:04:02.358Z,271.00
2023-08-08T05:04:34.290Z,271.00
2023-08-08T05:05:06.775Z,271.00
2023-08-08T05:05:38.744Z,271.67
2023-08-08T05:06:10.673Z,272.00
2023-08-08T05:06:42.594Z,272.00
2023-08-08T05:07:14.566Z,272.00
2023-08-08T05:07:46.505Z,272.00
2023-08-08T05:08:18.921Z,272.00
2023-08-08T05:08:54.261Z,272.00
2023-08-08T05:09:28.941Z,272.00
2023-08-08T05:10:00.882Z,272.00
2023-08-08T05:10:32.764Z,272.00
2023-08-08T05:11:04.752Z,271.67
2023-08-08T05:11:37.625Z,271.00
2023-08-08T05:12:09.761Z,271.00
2023-08-08T05:12:42.172Z,271.00
2023-08-08T05:13:14.159Z,271.00
2023-08-08T05:13:46.154Z,271.00
2023-08-08T05:14:18.086Z,271.00
2023-08-08T05:14:50.012Z,271.00
2023-08-08T05:15:21.975Z,271.00
2023-08-08T05:15:53.871Z,271.00
2023-08-08T05:16:25.906Z,271.00
2023-08-08T05:16:57.810Z,271.00
2023-08-08T05:17:32.819Z,271.00
2023-08-08T05:18:05.130Z,271.00
2023-08-08T05:18:37.180Z,272.00
2023-08-08T05:19:09.036Z,272.00
2023-08-08T05:19:40.979Z,271.33
2023-08-08T05:20:13.396Z,271.00
2023-08-08T05:20:45.321Z,271.00
2023-08-08T05:21:17.246Z,269.33
2023-08-08T05:21:50.473Z,267.00
2023-08-08T05:22:23.744Z,266.00
2023-08-08T05:22:55.665Z,266.00
2023-08-08T05:23:27.671Z,266.00
2023-08-08T05:23:59.728Z,266.00
2023-08-08T05:24:31.656Z,264.67
2023-08-08T05:25:03.733Z,264.00
2023-08-08T05:25:35.715Z,263.67
2023-08-08T05:26:07.703Z,264.00
2023-08-08T05:26:39.570Z,264.00
2023-08-08T05:27:12.633Z,264.00
2023-08-08T05:27:44.694Z,264.67
2023-08-08T05:28:16.656Z,265.00
2023-08-08T05:28:48.586Z,265.00
2023-08-08T05:29:21.022Z,265.00
2023-08-08T05:29:52.950Z,265.00
2023-08-08T05:30:25.620Z,265.00
2023-08-08T05:30:57.750Z,265.00
2023-08-08T05:31:29.889Z,265.00
2023-08-08T05:32:02.108Z,265.00
2023-08-08T05:32:34.444Z,264.00
2023-08-08T05:33:06.440Z,264.00
2023-08-08T05:33:38.323Z,264.00
2023-08-08T05:34:10.276Z,263.00
2023-08-08T05:34:42.287Z,262.33
2023-08-08T05:35:14.442Z,262.00
2023-08-08T05:35:46.366Z,262.00
2023-08-08T05:36:18.332Z,262.00
2023-08-08T05:36:56.167Z,262.00
2023-08-08T05:37:37.997Z,263.00
2023-08-08T05:38:09.863Z,262.00
2023-08-08T05:38:42.899Z,262.00
2023-08-08T05:39:14.899Z,263.00
2023-08-08T05:39:46.871Z,263.00
2023-08-08T05:40:18.842Z,264.00
2023-08-08T05:40:50.760Z,264.67
2023-08-08T05:41:22.734Z,265.00
2023-08-08T05:41:54.664Z,265.00
2023-08-08T05:42:27.170Z,265.00
2023-08-08T05:42:59.109Z,265.00
2023-08-08T05:43:31.160Z,265.00
2023-08-08T05:44:03.196Z,265.00
2023-08-08T05:44:35.152Z,265.00
2023-08-08T05:45:07.835Z,265.00
2023-08-08T05:45:39.807Z,265.00
2023-08-08T05:46:11.738Z,265.00
2023-08-08T05:46:43.667Z,264.33
2023-08-08T05:47:15.559Z,263.33
2023-08-08T05:47:47.549Z,262.67
2023-08-08T05:48:19.514Z,262.00
2023-08-08T05:48:51.629Z,261.00
2023-08-08T05:49:23.597Z,260.00
2023-08-08T05:49:55.654Z,259.67
2023-08-08T05:50:30.670Z,259.00
2023-08-08T05:51:06.088Z,259.00
2023-08-08T05:51:38.071Z,259.00
2023-08-08T05:52:10.527Z,259.00
2023-08-08T05:52:43.006Z,259.00
2023-08-08T05:53:15.053Z,256.33
2023-08-08T05:53:47.052Z,243.33
2023-08-08T05:54:19.043Z,203.33
2023-08-08T05:54:51.002Z,172.00
2023-08-08T05:55:23.114Z,166.00
2023-08-08T05:55:55.081Z,163.00
2023-08-08T05:56:35.299Z,151.67
2023-08-08T05:57:07.741Z,130.33
2023-08-08T05:57:39.673Z,125.67
2023-08-08T05:58:11.685Z,126.00
2023-08-08T05:58:43.645Z,120.00
2023-08-08T05:59:15.546Z,106.67
2023-08-08T05:59:47.430Z,86.67
2023-08-08T06:00:19.754Z,70.67
2023-08-08T06:00:51.818Z,65.00
2023-08-08T06:01:24.183Z,58.00
2023-08-08T06:01:56.302Z,51.67
2023-08-08T06:02:28.396Z,46.00
2023-08-08T06:03:00.354Z,45.67
2023-08-08T06:03:32.319Z,41.33
2023-08-08T06:04:04.836Z,35.33
2023-08-08T06:04:36.824Z,31.33
2023-08-08T06:05:09.344Z,27.67
2023-08-08T06:05:41.244Z,24.00
2023-08-08T06:06:13.210Z,21.33
2023-08-08T06:06:45.130Z,22.00
2023-08-08T06:07:17.120Z,26.33
2023-08-08T06:07:49.149Z,31.67
2023-08-08T06:08:21.065Z,38.00
2023-08-08T06:08:53.207Z,47.67
2023-08-08T06:09:26.618Z,48.67
2023-08-08T06:09:58.595Z,39.00
2023-08-08T06:10:30.513Z,31.00
2023-08-08T06:11:02.461Z,26.33
2023-08-08T06:11:34.312Z,29.33
2023-08-08T06:12:06.657Z,31.00
2023-08-08T06:12:38.549Z,27.33
2023-08-08T06:13:10.532Z,22.67
2023-08-08T06:13:42.499Z,19.00
2023-08-08T06:14:14.495Z,17.00
2023-08-08T06:14:46.478Z,15.00
2023-08-08T06:15:18.647Z,14.00
2023-08-08T06:15:50.675Z,13.67
2023-08-08T06:16:23.144Z,12.67
2023-08-08T06:16:55.410Z,11.00
2023-08-08T06:17:27.339Z,11.00
2023-08-08T06:17:59.267Z,10.33
2023-08-08T06:18:31.304Z,9.33
2023-08-08T06:19:04.316Z,8.33
2023-08-08T06:19:36.296Z,8.33
2023-08-08T06:20:10.299Z,10.33
2023-08-08T06:20:42.390Z,13.33
2023-08-08T06:21:14.310Z,15.00
2023-08-08T06:21:47.523Z,18.00
2023-08-08T06:22:20.458Z,20.33
2023-08-08T06:22:54.406Z,21.67
2023-08-08T06:23:26.552Z,26.33
2023-08-08T06:23:58.825Z,49.67
2023-08-08T06:24:31.854Z,65.67
2023-08-08T06:25:04.610Z,76.33
2023-08-08T06:25:36.554Z,66.00
2023-08-08T06:26:08.461Z,56.00
2023-08-08T06:26:40.493Z,55.67
2023-08-08T06:27:14.527Z,54.00
2023-08-08T06:27:56.806Z,50.67
2023-08-08T06:28:34.328Z,32.33
2023-08-08T06:29:06.752Z,20.67
2023-08-08T06:29:38.704Z,22.67
2023-08-08T06:30:11.105Z,25.67
2023-08-08T06:30:43.334Z,28.00
2023-08-08T06:31:16.071Z,32.00
2023-08-08T06:31:48.077Z,34.00
2023-08-08T06:32:19.965Z,34.67
2023-08-08T06:32:52.140Z,34.00
2023-08-08T06:33:24.877Z,34.67
2023-08-08T06:33:56.870Z,38.00
2023-08-08T06:34:28.879Z,43.00
2023-08-08T06:35:00.995Z,50.67
2023-08-08T06:35:33.016Z,52.33
2023-08-08T06:36:05.274Z,51.00
2023-08-08T06:36:37.257Z,51.67
2023-08-08T06:37:09.137Z,51.00
2023-08-08T06:37:41.082Z,50.33
2023-08-08T06:38:13.063Z,46.33
2023-08-08T06:38:45.351Z,34.00
2023-08-08T06:39:17.345Z,21.67
2023-08-08T06:39:49.319Z,17.33
2023-08-08T06:40:22.445Z,16.33
2023-08-08T06:40:54.418Z,18.00
2023-08-08T06:41:26.659Z,19.00
2023-08-08T06:41:59.692Z,17.67
2023-08-08T06:42:32.095Z,16.00
2023-08-08T06:43:04.078Z,16.00
2023-08-08T06:43:35.981Z,16.00
2023-08-08T06:44:08.946Z,14.67
2023-08-08T06:44:45.405Z,12.33
2023-08-08T06:45:17.421Z,10.67
2023-08-08T06:45:49.556Z,10.00
2023-08-08T06:46:21.839Z,10.67
2023-08-08T06:46:53.823Z,12.33
2023-08-08T06:47:25.790Z,13.00
2023-08-08T06:47:58.340Z,13.00
2023-08-08T06:48:30.345Z,12.00
2023-08-08T06:49:02.582Z,10.67
2023-08-08T06:49:34.515Z,9.33
2023-08-08T06:50:07.141Z,7.67
2023-08-08T06:50:39.114Z,6.33